sensor_id;sensor_type;location;lat;lon;timestamp;P1;durP1;ratioP1;P2;durP2;ratioP2
39996;SDS011;25688;52.338;21.072;2022-09-01T00:00:49;4.28;;;1.25;;
39996;SDS011;25688;52.338;21.072;2022-09-01T00:03:16;1.83;;;0.90;;
39996;SDS011;25688;52.338;21.072;2022-09-01T00:05:44;4.03;;;0.90;;
39996;SDS011;25688;52.338;21.072;2022-09-01T00:08:11;2.70;;;1.00;;
39996;SDS011;25688;52.338;21.072;2022-09-01T00:10:37;2.22;;;0.93;;
39996;SDS011;25688;52.338;21.072;2022-09-01T00:13:03;2.03;;;0.70;;
39996;SDS011;25688;52.338;21.072;2022-09-01T00:15:42;2.28;;;0.98;;
39996;SDS011;25688;52.338;21.072;2022-09-01T00:18:08;1.83;;;0.90;;
39996;SDS011;25688;52.338;21.072;2022-09-01T00:20:33;3.88;;;1.25;;
39996;SDS011;25688;52.338;21.072;2022-09-01T00:22:59;2.30;;;1.10;;
39996;SDS011;25688;52.338;21.072;2022-09-01T00:25:25;2.15;;;0.95;;
39996;SDS011;25688;52.338;21.072;2022-09-01T00:27:52;2.28;;;1.25;;
39996;SDS011;25688;52.338;21.072;2022-09-01T00:30:18;3.17;;;1.35;;
39996;SDS011;25688;52.338;21.072;2022-09-01T00:32:46;2.55;;;1.00;;
39996;SDS011;25688;52.338;21.072;2022-09-01T00:35:13;2.05;;;1.00;;
39996;SDS011;25688;52.338;21.072;2022-09-01T00:37:40;2.22;;;1.15;;
39996;SDS011;25688;52.338;21.072;2022-09-01T00:40:06;2.42;;;1.13;;
39996;SDS011;25688;52.338;21.072;2022-09-01T00:42:36;2.42;;;1.10;;
39996;SDS011;25688;52.338;21.072;2022-09-01T00:45:04;4.97;;;0.93;;
39996;SDS011;25688;52.338;21.072;2022-09-01T00:47:33;1.70;;;0.82;;
39996;SDS011;25688;52.338;21.072;2022-09-01T00:50:00;1.85;;;0.75;;
39996;SDS011;25688;52.338;21.072;2022-09-01T00:52:30;2.13;;;0.60;;
39996;SDS011;25688;52.338;21.072;2022-09-01T00:55:01;1.83;;;0.80;;
39996;SDS011;25688;52.338;21.072;2022-09-01T00:57:32;2.20;;;0.90;;
39996;SDS011;25688;52.338;21.072;2022-09-01T01:00:00;1.63;;;0.88;;
39996;SDS011;25688;52.338;21.072;2022-09-01T01:02:30;2.30;;;0.70;;
39996;SDS011;25688;52.338;21.072;2022-09-01T01:04:56;0.95;;;0.60;;
39996;SDS011;25688;52.338;21.072;2022-09-01T01:07:23;0.95;;;0.50;;
39996;SDS011;25688;52.338;21.072;2022-09-01T01:09:51;2.20;;;0.60;;
39996;SDS011;25688;52.338;21.072;2022-09-01T01:12:17;1.88;;;0.68;;
39996;SDS011;25688;52.338;21.072;2022-09-01T01:14:44;1.15;;;0.52;;
39996;SDS011;25688;52.338;21.072;2022-09-01T01:17:14;1.30;;;0.70;;
39996;SDS011;25688;52.338;21.072;2022-09-01T01:22:36;1.58;;;0.70;;
39996;SDS011;25688;52.338;21.072;2022-09-01T01:28:30;1.83;;;0.90;;
39996;SDS011;25688;52.338;21.072;2022-09-01T01:31:04;2.25;;;1.00;;
39996;SDS011;25688;52.338;21.072;2022-09-01T01:33:39;2.55;;;1.10;;
39996;SDS011;25688;52.338;21.072;2022-09-01T01:36:25;1.75;;;0.90;;
39996;SDS011;25688;52.338;21.072;2022-09-01T01:38:59;4.88;;;0.80;;
39996;SDS011;25688;52.338;21.072;2022-09-01T01:41:28;1.65;;;0.82;;
39996;SDS011;25688;52.338;21.072;2022-09-01T01:43:56;2.45;;;0.95;;
39996;SDS011;25688;52.338;21.072;2022-09-01T01:46:24;1.50;;;0.90;;
39996;SDS011;25688;52.338;21.072;2022-09-01T01:48:51;1.70;;;0.93;;
39996;SDS011;25688;52.338;21.072;2022-09-01T01:51:18;1.58;;;0.88;;
39996;SDS011;25688;52.338;21.072;2022-09-01T01:53:45;1.63;;;1.08;;
39996;SDS011;25688;52.338;21.072;2022-09-01T01:56:16;2.13;;;0.70;;
39996;SDS011;25688;52.338;21.072;2022-09-01T01:58:56;2.42;;;0.77;;
39996;SDS011;25688;52.338;21.072;2022-09-01T02:01:23;2.33;;;0.90;;
39996;SDS011;25688;52.338;21.072;2022-09-01T02:03:52;5.35;;;0.90;;
39996;SDS011;25688;52.338;21.072;2022-09-01T02:06:31;2.10;;;0.70;;
39996;SDS011;25688;52.338;21.072;2022-09-01T02:08:59;1.85;;;0.82;;
39996;SDS011;25688;52.338;21.072;2022-09-01T02:14:25;2.80;;;0.95;;
39996;SDS011;25688;52.338;21.072;2022-09-01T02:16:51;2.60;;;1.20;;
39996;SDS011;25688;52.338;21.072;2022-09-01T02:19:20;1.25;;;0.68;;
39996;SDS011;25688;52.338;21.072;2022-09-01T02:21:46;1.88;;;1.10;;
39996;SDS011;25688;52.338;21.072;2022-09-01T02:24:18;1.95;;;0.75;;
39996;SDS011;25688;52.338;21.072;2022-09-01T02:26:45;3.85;;;1.30;;
39996;SDS011;25688;52.338;21.072;2022-09-01T02:29:14;2.60;;;1.40;;
39996;SDS011;25688;52.338;21.072;2022-09-01T02:31:43;3.25;;;1.20;;
39996;SDS011;25688;52.338;21.072;2022-09-01T02:34:11;3.00;;;1.10;;
39996;SDS011;25688;52.338;21.072;2022-09-01T02:36:41;2.38;;;1.00;;
39996;SDS011;25688;52.338;21.072;2022-09-01T02:39:15;1.83;;;1.00;;
39996;SDS011;25688;52.338;21.072;2022-09-01T02:41:44;18.48;;;1.70;;
39996;SDS011;25688;52.338;21.072;2022-09-01T02:44:10;150.52;;;9.80;;
39996;SDS011;25688;52.338;21.072;2022-09-01T02:46:43;97.45;;;10.48;;
39996;SDS011;25688;52.338;21.072;2022-09-01T02:49:17;156.75;;;10.20;;
39996;SDS011;25688;52.338;21.072;2022-09-01T02:51:50;3.45;;;0.80;;
39996;SDS011;25688;52.338;21.072;2022-09-01T02:54:18;32.53;;;3.42;;
39996;SDS011;25688;52.338;21.072;2022-09-01T02:57:30;4.28;;;1.20;;
39996;SDS011;25688;52.338;21.072;2022-09-01T02:59:58;2.92;;;1.05;;
39996;SDS011;25688;52.338;21.072;2022-09-01T03:02:24;48.78;;;2.80;;
39996;SDS011;25688;52.338;21.072;2022-09-01T03:04:53;36.90;;;2.10;;
39996;SDS011;25688;52.338;21.072;2022-09-01T03:07:25;1.90;;;0.77;;
39996;SDS011;25688;52.338;21.072;2022-09-01T03:10:32;73.25;;;6.35;;
39996;SDS011;25688;52.338;21.072;2022-09-01T03:13:03;100.00;;;5.82;;
39996;SDS011;25688;52.338;21.072;2022-09-01T03:15:35;93.50;;;7.57;;
39996;SDS011;25688;52.338;21.072;2022-09-01T03:18:03;2.35;;;0.80;;
39996;SDS011;25688;52.338;21.072;2022-09-01T03:20:30;2.38;;;1.02;;
39996;SDS011;25688;52.338;21.072;2022-09-01T03:22:59;2.53;;;1.00;;
39996;SDS011;25688;52.338;21.072;2022-09-01T03:25:25;43.70;;;3.47;;
39996;SDS011;25688;52.338;21.072;2022-09-01T03:27:54;4.60;;;1.33;;
39996;SDS011;25688;52.338;21.072;2022-09-01T03:30:23;3.55;;;1.20;;
39996;SDS011;25688;52.338;21.072;2022-09-01T03:32:51;4.28;;;2.33;;
39996;SDS011;25688;52.338;21.072;2022-09-01T03:35:17;3.55;;;1.58;;
39996;SDS011;25688;52.338;21.072;2022-09-01T03:37:42;3.42;;;1.67;;
39996;SDS011;25688;52.338;21.072;2022-09-01T03:40:10;5.22;;;1.52;;
39996;SDS011;25688;52.338;21.072;2022-09-01T03:42:36;1.00;;;0.60;;
39996;SDS011;25688;52.338;21.072;2022-09-01T03:45:11;1.52;;;0.77;;
39996;SDS011;25688;52.338;21.072;2022-09-01T03:47:42;3.55;;;1.08;;
39996;SDS011;25688;52.338;21.072;2022-09-01T03:50:11;2.75;;;1.58;;
39996;SDS011;25688;52.338;21.072;2022-09-01T03:52:48;2.13;;;1.10;;
39996;SDS011;25688;52.338;21.072;2022-09-01T03:55:20;2.70;;;1.20;;
39996;SDS011;25688;52.338;21.072;2022-09-01T03:57:55;4.00;;;1.48;;
39996;SDS011;25688;52.338;21.072;2022-09-01T04:00:23;4.20;;;1.77;;
39996;SDS011;25688;52.338;21.072;2022-09-01T04:02:54;4.40;;;1.98;;
39996;SDS011;25688;52.338;21.072;2022-09-01T04:05:50;25.75;;;4.07;;
39996;SDS011;25688;52.338;21.072;2022-09-01T04:13:50;4.38;;;2.05;;
39996;SDS011;25688;52.338;21.072;2022-09-01T04:16:21;4.78;;;2.10;;
39996;SDS011;25688;52.338;21.072;2022-09-01T04:19:11;3.00;;;1.30;;
39996;SDS011;25688;52.338;21.072;2022-09-01T04:22:05;3.08;;;1.60;;
39996;SDS011;25688;52.338;21.072;2022-09-01T04:24:32;3.65;;;1.60;;
39996;SDS011;25688;52.338;21.072;2022-09-01T04:29:55;2.50;;;0.80;;
39996;SDS011;25688;52.338;21.072;2022-09-01T04:32:27;2.10;;;0.85;;
39996;SDS011;25688;52.338;21.072;2022-09-01T04:38:57;2.33;;;1.00;;
39996;SDS011;25688;52.338;21.072;2022-09-01T04:43:59;2.30;;;1.20;;
39996;SDS011;25688;52.338;21.072;2022-09-01T04:53:27;3.42;;;1.30;;
39996;SDS011;25688;52.338;21.072;2022-09-01T04:55:53;3.15;;;1.50;;
39996;SDS011;25688;52.338;21.072;2022-09-01T04:58:19;3.95;;;2.00;;
39996;SDS011;25688;52.338;21.072;2022-09-01T05:00:47;5.75;;;3.38;;
39996;SDS011;25688;52.338;21.072;2022-09-01T05:03:16;7.35;;;4.10;;
39996;SDS011;25688;52.338;21.072;2022-09-01T05:05:45;9.32;;;4.25;;
39996;SDS011;25688;52.338;21.072;2022-09-01T05:08:12;6.32;;;3.13;;
39996;SDS011;25688;52.338;21.072;2022-09-01T05:10:46;15.07;;;4.95;;
39996;SDS011;25688;52.338;21.072;2022-09-01T05:13:18;9.73;;;5.18;;
39996;SDS011;25688;52.338;21.072;2022-09-01T05:16:06;9.40;;;5.07;;
39996;SDS011;25688;52.338;21.072;2022-09-01T05:18:49;9.68;;;5.15;;
39996;SDS011;25688;52.338;21.072;2022-09-01T05:21:18;10.23;;;5.47;;
39996;SDS011;25688;52.338;21.072;2022-09-01T05:23:49;11.30;;;5.82;;
39996;SDS011;25688;52.338;21.072;2022-09-01T05:26:19;12.00;;;5.82;;
39996;SDS011;25688;52.338;21.072;2022-09-01T05:28:49;13.60;;;6.43;;
39996;SDS011;25688;52.338;21.072;2022-09-01T05:31:19;13.48;;;6.57;;
39996;SDS011;25688;52.338;21.072;2022-09-01T05:33:51;14.00;;;5.93;;
39996;SDS011;25688;52.338;21.072;2022-09-01T05:36:17;10.85;;;5.68;;
39996;SDS011;25688;52.338;21.072;2022-09-01T05:38:47;9.98;;;5.78;;
39996;SDS011;25688;52.338;21.072;2022-09-01T05:41:15;7.90;;;4.40;;
39996;SDS011;25688;52.338;21.072;2022-09-01T05:43:49;7.20;;;3.80;;
39996;SDS011;25688;52.338;21.072;2022-09-01T05:46:23;9.15;;;3.55;;
39996;SDS011;25688;52.338;21.072;2022-09-01T05:48:51;8.57;;;3.17;;
39996;SDS011;25688;52.338;21.072;2022-09-01T05:51:28;6.50;;;2.70;;
39996;SDS011;25688;52.338;21.072;2022-09-01T05:53:58;4.85;;;3.13;;
39996;SDS011;25688;52.338;21.072;2022-09-01T05:56:25;7.38;;;2.50;;
39996;SDS011;25688;52.338;21.072;2022-09-01T05:58:52;5.70;;;2.50;;
39996;SDS011;25688;52.338;21.072;2022-09-01T06:01:28;9.10;;;2.40;;
39996;SDS011;25688;52.338;21.072;2022-09-01T06:03:58;3.67;;;1.73;;
39996;SDS011;25688;52.338;21.072;2022-09-01T06:06:34;3.55;;;1.77;;
39996;SDS011;25688;52.338;21.072;2022-09-01T06:09:05;3.20;;;1.42;;
39996;SDS011;25688;52.338;21.072;2022-09-01T06:11:34;8.20;;;2.30;;
39996;SDS011;25688;52.338;21.072;2022-09-01T06:14:00;5.28;;;1.92;;
39996;SDS011;25688;52.338;21.072;2022-09-01T06:16:26;7.90;;;2.10;;
39996;SDS011;25688;52.338;21.072;2022-09-01T06:18:53;3.88;;;1.52;;
39996;SDS011;25688;52.338;21.072;2022-09-01T06:21:30;5.28;;;1.50;;
39996;SDS011;25688;52.338;21.072;2022-09-01T06:26:57;4.43;;;1.60;;
39996;SDS011;25688;52.338;21.072;2022-09-01T06:29:26;5.32;;;1.45;;
39996;SDS011;25688;52.338;21.072;2022-09-01T06:31:55;6.47;;;1.35;;
39996;SDS011;25688;52.338;21.072;2022-09-01T06:34:22;4.82;;;1.65;;
39996;SDS011;25688;52.338;21.072;2022-09-01T06:36:50;3.45;;;1.20;;
39996;SDS011;25688;52.338;21.072;2022-09-01T06:39:16;6.82;;;1.33;;
39996;SDS011;25688;52.338;21.072;2022-09-01T06:41:46;2.35;;;1.00;;
39996;SDS011;25688;52.338;21.072;2022-09-01T06:44:15;3.67;;;0.80;;
39996;SDS011;25688;52.338;21.072;2022-09-01T06:46:50;1.73;;;0.77;;
39996;SDS011;25688;52.338;21.072;2022-09-01T06:49:16;3.50;;;0.90;;
39996;SDS011;25688;52.338;21.072;2022-09-01T06:51:42;3.15;;;0.80;;
39996;SDS011;25688;52.338;21.072;2022-09-01T06:54:08;3.50;;;0.90;;
39996;SDS011;25688;52.338;21.072;2022-09-01T06:56:38;4.03;;;0.93;;
39996;SDS011;25688;52.338;21.072;2022-09-01T06:59:04;5.15;;;0.93;;
39996;SDS011;25688;52.338;21.072;2022-09-01T07:01:34;4.22;;;1.75;;
39996;SDS011;25688;52.338;21.072;2022-09-01T07:04:02;5.07;;;0.90;;
39996;SDS011;25688;52.338;21.072;2022-09-01T07:06:27;4.20;;;0.93;;
39996;SDS011;25688;52.338;21.072;2022-09-01T07:09:09;4.90;;;0.90;;
39996;SDS011;25688;52.338;21.072;2022-09-01T07:11:36;2.17;;;0.80;;
39996;SDS011;25688;52.338;21.072;2022-09-01T07:14:03;6.85;;;0.90;;
39996;SDS011;25688;52.338;21.072;2022-09-01T07:16:31;2.03;;;0.70;;
39996;SDS011;25688;52.338;21.072;2022-09-01T07:19:04;5.03;;;0.90;;
39996;SDS011;25688;52.338;21.072;2022-09-01T07:24:01;3.60;;;0.60;;
39996;SDS011;25688;52.338;21.072;2022-09-01T07:26:28;3.97;;;0.95;;
39996;SDS011;25688;52.338;21.072;2022-09-01T07:28:55;2.28;;;0.80;;
39996;SDS011;25688;52.338;21.072;2022-09-01T07:31:26;3.95;;;0.73;;
39996;SDS011;25688;52.338;21.072;2022-09-01T07:33:57;6.93;;;0.95;;
39996;SDS011;25688;52.338;21.072;2022-09-01T07:36:25;5.75;;;1.02;;
39996;SDS011;25688;52.338;21.072;2022-09-01T07:38:51;3.40;;;0.70;;
39996;SDS011;25688;52.338;21.072;2022-09-01T07:48:02;1.40;;;0.70;;
39996;SDS011;25688;52.338;21.072;2022-09-01T07:50:52;2.92;;;0.52;;
39996;SDS011;25688;52.338;21.072;2022-09-01T07:53:19;2.28;;;0.73;;
39996;SDS011;25688;52.338;21.072;2022-09-01T07:55:56;1.00;;;0.40;;
39996;SDS011;25688;52.338;21.072;2022-09-01T07:58:31;1.40;;;0.50;;
39996;SDS011;25688;52.338;21.072;2022-09-01T08:00:58;2.78;;;0.52;;
39996;SDS011;25688;52.338;21.072;2022-09-01T08:03:52;2.00;;;0.55;;
39996;SDS011;25688;52.338;21.072;2022-09-01T08:06:20;1.50;;;0.60;;
39996;SDS011;25688;52.338;21.072;2022-09-01T08:08:49;1.58;;;0.60;;
39996;SDS011;25688;52.338;21.072;2022-09-01T08:11:18;2.20;;;0.52;;
39996;SDS011;25688;52.338;21.072;2022-09-01T08:13:47;2.47;;;0.50;;
39996;SDS011;25688;52.338;21.072;2022-09-01T08:16:13;2.25;;;0.50;;
39996;SDS011;25688;52.338;21.072;2022-09-01T08:18:40;1.85;;;0.40;;
39996;SDS011;25688;52.338;21.072;2022-09-01T08:21:09;1.38;;;0.55;;
39996;SDS011;25688;52.338;21.072;2022-09-01T08:23:37;3.47;;;0.45;;
39996;SDS011;25688;52.338;21.072;2022-09-01T08:26:04;2.60;;;0.40;;
39996;SDS011;25688;52.338;21.072;2022-09-01T08:28:31;1.90;;;0.30;;
39996;SDS011;25688;52.338;21.072;2022-09-01T08:31:19;2.65;;;0.30;;
39996;SDS011;25688;52.338;21.072;2022-09-01T08:33:45;1.10;;;0.40;;
39996;SDS011;25688;52.338;21.072;2022-09-01T08:36:12;1.58;;;0.40;;
39996;SDS011;25688;52.338;21.072;2022-09-01T08:38:39;1.60;;;0.60;;
39996;SDS011;25688;52.338;21.072;2022-09-01T08:41:31;4.40;;;0.60;;
39996;SDS011;25688;52.338;21.072;2022-09-01T08:44:18;1.60;;;0.50;;
39996;SDS011;25688;52.338;21.072;2022-09-01T08:46:46;2.90;;;0.73;;
39996;SDS011;25688;52.338;21.072;2022-09-01T08:49:20;3.53;;;0.40;;
39996;SDS011;25688;52.338;21.072;2022-09-01T08:57:21;1.08;;;0.40;;
39996;SDS011;25688;52.338;21.072;2022-09-01T08:59:52;3.10;;;0.52;;
39996;SDS011;25688;52.338;21.072;2022-09-01T09:05:29;1.85;;;0.50;;
39996;SDS011;25688;52.338;21.072;2022-09-01T09:08:05;1.27;;;0.70;;
39996;SDS011;25688;52.338;21.072;2022-09-01T09:16:10;1.25;;;0.50;;
39996;SDS011;25688;52.338;21.072;2022-09-01T09:18:59;1.88;;;0.70;;
39996;SDS011;25688;52.338;21.072;2022-09-01T09:21:41;0.90;;;0.45;;
39996;SDS011;25688;52.338;21.072;2022-09-01T09:27:24;4.32;;;0.60;;
39996;SDS011;25688;52.338;21.072;2022-09-01T09:30:27;2.47;;;0.50;;
39996;SDS011;25688;52.338;21.072;2022-09-01T09:35:36;2.08;;;0.40;;
39996;SDS011;25688;52.338;21.072;2022-09-01T09:41:14;0.98;;;0.40;;
39996;SDS011;25688;52.338;21.072;2022-09-01T09:43:50;1.02;;;0.35;;
39996;SDS011;25688;52.338;21.072;2022-09-01T09:49:05;2.67;;;0.52;;
39996;SDS011;25688;52.338;21.072;2022-09-01T09:51:35;2.70;;;0.50;;
39996;SDS011;25688;52.338;21.072;2022-09-01T09:54:12;2.38;;;0.60;;
39996;SDS011;25688;52.338;21.072;2022-09-01T10:02:21;1.33;;;0.40;;
39996;SDS011;25688;52.338;21.072;2022-09-01T10:04:51;0.90;;;0.22;;
39996;SDS011;25688;52.338;21.072;2022-09-01T10:07:26;1.63;;;0.35;;
39996;SDS011;25688;52.338;21.072;2022-09-01T10:09:53;2.05;;;0.40;;
39996;SDS011;25688;52.338;21.072;2022-09-01T10:12:22;1.83;;;0.40;;
39996;SDS011;25688;52.338;21.072;2022-09-01T10:14:57;2.15;;;0.38;;
39996;SDS011;25688;52.338;21.072;2022-09-01T10:17:36;1.88;;;0.40;;
39996;SDS011;25688;52.338;21.072;2022-09-01T10:20:20;1.25;;;0.30;;
39996;SDS011;25688;52.338;21.072;2022-09-01T10:22:48;1.73;;;0.30;;
39996;SDS011;25688;52.338;21.072;2022-09-01T10:25:17;1.85;;;0.50;;
39996;SDS011;25688;52.338;21.072;2022-09-01T10:27:55;2.05;;;0.30;;
39996;SDS011;25688;52.338;21.072;2022-09-01T10:30:26;1.27;;;0.40;;
39996;SDS011;25688;52.338;21.072;2022-09-01T10:32:54;2.05;;;0.32;;
39996;SDS011;25688;52.338;21.072;2022-09-01T10:37:54;0.60;;;0.35;;
39996;SDS011;25688;52.338;21.072;2022-09-01T10:48:49;1.83;;;0.40;;
39996;SDS011;25688;52.338;21.072;2022-09-01T10:53:50;0.93;;;0.30;;
39996;SDS011;25688;52.338;21.072;2022-09-01T10:59:26;2.35;;;0.40;;
39996;SDS011;25688;52.338;21.072;2022-09-01T11:06:59;1.13;;;0.40;;
39996;SDS011;25688;52.338;21.072;2022-09-01T11:09:27;1.17;;;0.50;;
39996;SDS011;25688;52.338;21.072;2022-09-01T11:12:09;1.48;;;0.40;;
39996;SDS011;25688;52.338;21.072;2022-09-01T11:15:01;2.00;;;0.40;;
39996;SDS011;25688;52.338;21.072;2022-09-01T11:17:38;1.25;;;0.40;;
39996;SDS011;25688;52.338;21.072;2022-09-01T11:20:31;2.33;;;0.52;;
39996;SDS011;25688;52.338;21.072;2022-09-01T11:26:01;3.15;;;0.63;;
39996;SDS011;25688;52.338;21.072;2022-09-01T11:28:56;1.60;;;0.50;;
39996;SDS011;25688;52.338;21.072;2022-09-01T11:31:34;0.35;;;0.25;;
39996;SDS011;25688;52.338;21.072;2022-09-01T11:34:09;2.25;;;0.43;;
39996;SDS011;25688;52.338;21.072;2022-09-01T11:47:34;1.45;;;0.40;;
39996;SDS011;25688;52.338;21.072;2022-09-01T11:53:03;4.25;;;0.50;;
39996;SDS011;25688;52.338;21.072;2022-09-01T11:55:45;1.92;;;0.50;;
39996;SDS011;25688;52.338;21.072;2022-09-01T12:00:57;0.85;;;0.30;;
39996;SDS011;25688;52.338;21.072;2022-09-01T12:04:16;0.75;;;0.40;;
39996;SDS011;25688;52.338;21.072;2022-09-01T12:06:51;2.78;;;0.38;;
39996;SDS011;25688;52.338;21.072;2022-09-01T12:09:37;1.65;;;0.43;;
39996;SDS011;25688;52.338;21.072;2022-09-01T12:12:25;2.42;;;0.52;;
39996;SDS011;25688;52.338;21.072;2022-09-01T12:15:19;1.05;;;0.30;;
39996;SDS011;25688;52.338;21.072;2022-09-01T12:17:50;1.10;;;0.35;;
39996;SDS011;25688;52.338;21.072;2022-09-01T12:20:27;0.95;;;0.30;;
39996;SDS011;25688;52.338;21.072;2022-09-01T12:23:14;1.50;;;0.40;;
39996;SDS011;25688;52.338;21.072;2022-09-01T12:25:46;1.75;;;0.40;;
39996;SDS011;25688;52.338;21.072;2022-09-01T12:28:12;1.48;;;0.40;;
39996;SDS011;25688;52.338;21.072;2022-09-01T12:30:45;3.67;;;0.40;;
39996;SDS011;25688;52.338;21.072;2022-09-01T12:33:42;0.80;;;0.30;;
39996;SDS011;25688;52.338;21.072;2022-09-01T12:36:18;1.55;;;0.40;;
39996;SDS011;25688;52.338;21.072;2022-09-01T12:50:41;2.83;;;0.50;;
39996;SDS011;25688;52.338;21.072;2022-09-01T12:52:54;0.65;;;0.30;;
39996;SDS011;25688;52.338;21.072;2022-09-01T12:55:55;0.93;;;0.30;;
39996;SDS011;25688;52.338;21.072;2022-09-01T12:58:41;1.70;;;0.60;;
39996;SDS011;25688;52.338;21.072;2022-09-01T13:04:11;4.07;;;0.63;;
39996;SDS011;25688;52.338;21.072;2022-09-01T13:06:49;2.03;;;0.50;;
39996;SDS011;25688;52.338;21.072;2022-09-01T13:09:35;0.88;;;0.43;;
39996;SDS011;25688;52.338;21.072;2022-09-01T13:12:15;1.23;;;0.30;;
39996;SDS011;25688;52.338;21.072;2022-09-01T13:14:47;1.30;;;0.52;;
39996;SDS011;25688;52.338;21.072;2022-09-01T13:17:13;1.80;;;0.40;;
39996;SDS011;25688;52.338;21.072;2022-09-01T13:19:40;2.80;;;0.40;;
39996;SDS011;25688;52.338;21.072;2022-09-01T13:22:08;1.48;;;0.60;;
39996;SDS011;25688;52.338;21.072;2022-09-01T13:24:34;3.58;;;0.50;;
39996;SDS011;25688;52.338;21.072;2022-09-01T13:27:00;4.35;;;0.65;;
39996;SDS011;25688;52.338;21.072;2022-09-01T13:29:30;4.05;;;0.80;;
39996;SDS011;25688;52.338;21.072;2022-09-01T13:31:55;1.23;;;0.50;;
39996;SDS011;25688;52.338;21.072;2022-09-01T13:34:22;2.08;;;0.30;;
39996;SDS011;25688;52.338;21.072;2022-09-01T13:37:00;3.28;;;0.63;;
39996;SDS011;25688;52.338;21.072;2022-09-01T13:39:26;1.70;;;0.50;;
39996;SDS011;25688;52.338;21.072;2022-09-01T13:41:52;2.13;;;0.30;;
39996;SDS011;25688;52.338;21.072;2022-09-01T13:47:15;1.30;;;0.45;;
39996;SDS011;25688;52.338;21.072;2022-09-01T13:49:57;1.92;;;0.40;;
39996;SDS011;25688;52.338;21.072;2022-09-01T13:52:28;1.83;;;0.40;;
39996;SDS011;25688;52.338;21.072;2022-09-01T13:57:25;1.30;;;0.40;;
39996;SDS011;25688;52.338;21.072;2022-09-01T14:00:37;3.35;;;0.40;;
39996;SDS011;25688;52.338;21.072;2022-09-01T14:02:58;1.60;;;0.45;;
39996;SDS011;25688;52.338;21.072;2022-09-01T14:05:30;0.95;;;0.30;;
39996;SDS011;25688;52.338;21.072;2022-09-01T14:07:57;0.80;;;0.30;;
39996;SDS011;25688;52.338;21.072;2022-09-01T14:10:25;1.23;;;0.60;;
39996;SDS011;25688;52.338;21.072;2022-09-01T14:12:55;1.10;;;0.38;;
39996;SDS011;25688;52.338;21.072;2022-09-01T14:15:34;1.98;;;0.45;;
39996;SDS011;25688;52.338;21.072;2022-09-01T14:18:00;1.40;;;0.50;;
39996;SDS011;25688;52.338;21.072;2022-09-01T14:20:27;1.25;;;0.50;;
39996;SDS011;25688;52.338;21.072;2022-09-01T14:22:56;1.65;;;0.40;;
39996;SDS011;25688;52.338;21.072;2022-09-01T14:25:23;1.40;;;0.40;;
39996;SDS011;25688;52.338;21.072;2022-09-01T14:27:49;0.90;;;0.40;;
39996;SDS011;25688;52.338;21.072;2022-09-01T14:30:19;0.73;;;0.30;;
39996;SDS011;25688;52.338;21.072;2022-09-01T14:33:18;2.25;;;0.73;;
39996;SDS011;25688;52.338;21.072;2022-09-01T14:36:00;7.53;;;0.57;;
39996;SDS011;25688;52.338;21.072;2022-09-01T14:44:40;2.45;;;0.38;;
39996;SDS011;25688;52.338;21.072;2022-09-01T14:47:20;4.85;;;1.20;;
39996;SDS011;25688;52.338;21.072;2022-09-01T14:49:52;1.13;;;0.30;;
39996;SDS011;25688;52.338;21.072;2022-09-01T14:52:18;1.27;;;0.43;;
39996;SDS011;25688;52.338;21.072;2022-09-01T14:54:49;2.45;;;0.40;;
39996;SDS011;25688;52.338;21.072;2022-09-01T14:57:21;2.17;;;0.35;;
39996;SDS011;25688;52.338;21.072;2022-09-01T14:59:50;1.20;;;0.43;;
39996;SDS011;25688;52.338;21.072;2022-09-01T15:02:15;1.95;;;0.50;;
39996;SDS011;25688;52.338;21.072;2022-09-01T15:04:41;1.73;;;0.40;;
39996;SDS011;25688;52.338;21.072;2022-09-01T15:07:07;0.90;;;0.40;;
39996;SDS011;25688;52.338;21.072;2022-09-01T15:09:37;4.00;;;0.40;;
39996;SDS011;25688;52.338;21.072;2022-09-01T15:12:03;2.65;;;1.00;;
39996;SDS011;25688;52.338;21.072;2022-09-01T15:14:30;2.22;;;0.40;;
39996;SDS011;25688;52.338;21.072;2022-09-01T15:16:57;1.55;;;0.40;;
39996;SDS011;25688;52.338;21.072;2022-09-01T15:19:23;0.75;;;0.40;;
39996;SDS011;25688;52.338;21.072;2022-09-01T15:22:07;0.98;;;0.40;;
39996;SDS011;25688;52.338;21.072;2022-09-01T15:24:38;3.85;;;0.70;;
39996;SDS011;25688;52.338;21.072;2022-09-01T15:30:31;1.25;;;0.40;;
39996;SDS011;25688;52.338;21.072;2022-09-01T15:32:58;1.95;;;0.63;;
39996;SDS011;25688;52.338;21.072;2022-09-01T15:35:23;0.88;;;0.30;;
39996;SDS011;25688;52.338;21.072;2022-09-01T15:37:52;1.52;;;0.40;;
39996;SDS011;25688;52.338;21.072;2022-09-01T15:43:09;2.40;;;0.50;;
39996;SDS011;25688;52.338;21.072;2022-09-01T15:45:40;2.05;;;0.50;;
39996;SDS011;25688;52.338;21.072;2022-09-01T15:48:17;1.20;;;0.30;;
39996;SDS011;25688;52.338;21.072;2022-09-01T15:50:43;1.00;;;0.50;;
39996;SDS011;25688;52.338;21.072;2022-09-01T15:53:10;3.38;;;0.50;;
39996;SDS011;25688;52.338;21.072;2022-09-01T15:55:41;2.47;;;0.40;;
39996;SDS011;25688;52.338;21.072;2022-09-01T15:58:14;0.55;;;0.30;;
39996;SDS011;25688;52.338;21.072;2022-09-01T16:00:42;2.78;;;0.60;;
39996;SDS011;25688;52.338;21.072;2022-09-01T16:05:40;4.30;;;0.50;;
39996;SDS011;25688;52.338;21.072;2022-09-01T16:08:06;1.40;;;0.40;;
39996;SDS011;25688;52.338;21.072;2022-09-01T16:10:37;1.93;;;0.53;;
39996;SDS011;25688;52.338;21.072;2022-09-01T16:13:04;3.67;;;0.60;;
39996;SDS011;25688;52.338;21.072;2022-09-01T16:15:30;8.80;;;0.98;;
39996;SDS011;25688;52.338;21.072;2022-09-01T16:24:06;5.57;;;0.65;;
39996;SDS011;25688;52.338;21.072;2022-09-01T16:26:35;1.63;;;0.50;;
39996;SDS011;25688;52.338;21.072;2022-09-01T16:29:02;2.83;;;0.47;;
39996;SDS011;25688;52.338;21.072;2022-09-01T16:31:32;2.85;;;0.50;;
39996;SDS011;25688;52.338;21.072;2022-09-01T16:34:00;2.92;;;0.60;;
39996;SDS011;25688;52.338;21.072;2022-09-01T16:36:48;5.15;;;0.80;;
39996;SDS011;25688;52.338;21.072;2022-09-01T16:39:33;3.22;;;0.50;;
39996;SDS011;25688;52.338;21.072;2022-09-01T16:42:23;4.57;;;0.80;;
39996;SDS011;25688;52.338;21.072;2022-09-01T16:55:55;1.23;;;0.50;;
39996;SDS011;25688;52.338;21.072;2022-09-01T16:58:24;3.65;;;0.70;;
39996;SDS011;25688;52.338;21.072;2022-09-01T17:09:19;2.13;;;0.40;;
39996;SDS011;25688;52.338;21.072;2022-09-01T17:12:05;1.55;;;0.40;;
39996;SDS011;25688;52.338;21.072;2022-09-01T17:14:41;1.52;;;0.47;;
39996;SDS011;25688;52.338;21.072;2022-09-01T17:17:13;2.13;;;0.40;;
39996;SDS011;25688;52.338;21.072;2022-09-01T17:19:43;2.25;;;0.60;;
39996;SDS011;25688;52.338;21.072;2022-09-01T17:22:36;1.77;;;0.63;;
39996;SDS011;25688;52.338;21.072;2022-09-01T17:25:08;4.10;;;0.60;;
39996;SDS011;25688;52.338;21.072;2022-09-01T17:30:33;1.58;;;0.50;;
39996;SDS011;25688;52.338;21.072;2022-09-01T17:41:48;3.63;;;0.60;;
39996;SDS011;25688;52.338;21.072;2022-09-01T17:47:07;2.33;;;0.50;;
39996;SDS011;25688;52.338;21.072;2022-09-01T17:58:47;2.15;;;0.60;;
39996;SDS011;25688;52.338;21.072;2022-09-01T18:04:39;7.50;;;1.00;;
39996;SDS011;25688;52.338;21.072;2022-09-01T19:00:52;6.47;;;0.90;;
39996;SDS011;25688;52.338;21.072;2022-09-01T19:06:26;8.85;;;1.35;;
39996;SDS011;25688;52.338;21.072;2022-09-01T19:09:30;6.97;;;1.25;;
39996;SDS011;25688;52.338;21.072;2022-09-01T19:12:22;7.38;;;1.25;;
39996;SDS011;25688;52.338;21.072;2022-09-01T19:30:18;3.83;;;1.40;;
39996;SDS011;25688;52.338;21.072;2022-09-01T19:32:46;8.10;;;1.90;;
39996;SDS011;25688;52.338;21.072;2022-09-01T19:35:14;4.57;;;1.85;;
39996;SDS011;25688;52.338;21.072;2022-09-01T19:37:42;5.85;;;1.85;;